Terminal Aerodrome Forecast
Issued by NWS

Home | Current Version | Previous Version | Text Only | Print | Product List | Glossary On
Versions: 1 2 3 4 5 6 7 8 9 10 11 12 13 14 15 16 17 18 19 20 21 22 23 24 25 26 27
000
FTUS46 KOTX 252340 CCA
TAFCOE
TAF COR
KCOE 252340Z 2600/2624 05005KT P6SM -SHRAGS BKN025 OVC060
      TEMPO 2601/2603 P6SM SCT025 BKN060
     FM260330 VRB05KT P6SM SCT060 BKN120
     FM261600 10006KT P6SM SCT015 BKN120
     FM261900 29006KT P6SM SCT050
      AMD LTD TO CLD AND VIS=

USA.gov is the U.S. government's official web portal to all federal, state and local government web resources and services.